createdAt,value
2023-02-12T00:13:28.199Z,75
2023-02-12T00:42:50.476Z,75
2023-02-12T01:12:11.943Z,75
2023-02-12T01:41:30.227Z,75
2023-02-12T02:10:47.929Z,75
2023-02-12T02:40:08.764Z,75
2023-02-12T03:09:29.661Z,75
2023-02-12T03:38:49.483Z,77
2023-02-12T04:08:13.634Z,75
2023-02-12T04:37:32.510Z,76
2023-02-12T05:06:53.471Z,76
2023-02-12T05:36:14.779Z,76
2023-02-12T06:05:34.788Z,75
2023-02-12T06:34:58.522Z,75
2023-02-12T07:04:13.857Z,75
2023-02-12T07:33:18.007Z,75
2023-02-12T08:02:35.288Z,77
2023-02-12T08:31:50.739Z,81
2023-02-12T09:01:03.974Z,84
2023-02-12T09:30:13.014Z,85
2023-02-12T09:59:26.530Z,83
2023-02-12T10:28:38.950Z,79
2023-02-12T10:57:54.311Z,80
2023-02-12T11:27:17.688Z,73
2023-02-12T11:56:52.039Z,71
2023-02-12T12:26:07.266Z,76
2023-02-12T12:55:25.224Z,68
2023-02-12T13:24:34.669Z,68
2023-02-12T13:53:54.098Z,69
2023-02-12T14:23:18.196Z,68
2023-02-12T14:52:35.393Z,65
2023-02-12T15:21:55.309Z,63
2023-02-12T15:51:08.368Z,62
2023-02-12T16:20:20.908Z,69
2023-02-12T16:49:34.020Z,65
2023-02-12T17:18:43.366Z,66
2023-02-12T17:47:55.231Z,67
2023-02-12T18:17:12.502Z,68
2023-02-12T18:46:21.149Z,68
2023-02-12T19:15:30.180Z,68
2023-02-12T19:44:44.183Z,69
2023-02-12T20:14:02.816Z,70
2023-02-12T20:43:24.821Z,70
2023-02-12T21:12:43.928Z,70
2023-02-12T21:42:05.531Z,70
2023-02-12T22:11:19.212Z,71
2023-02-12T22:40:33.899Z,71
2023-02-12T23:09:45.327Z,72
2023-02-12T23:38:56.041Z,71
